Terminal Aerodrome Forecast
Issued by NWS Tallahassee, FL

Home | Current Version | Previous Version | Text Only | Print | Product List | Glossary On
Versions: 1 2 3 4 5 6 7 8 9 10 11 12 13 14
000
FTUS42 KTAE 262325
TAFTLH
TAF
KTLH 262325Z 2700/2724 17008KT P6SM SCT050
     FM270800 13008KT P6SM BKN015
     FM271500 20015G22KT P6SM BKN025
     FM271800 20016G24KT P6SM BKN040=

USA.gov is the U.S. government's official web portal to all federal, state and local government web resources and services.